createdAt,value
2018-07-03T00:01:09.224Z,15.19
2018-07-03T00:03:37.760Z,15.12
2018-07-03T00:06:06.405Z,15.07
2018-07-03T00:08:34.964Z,15.05
2018-07-03T00:11:03.534Z,15.02
2018-07-03T00:13:33.155Z,14.98
2018-07-03T00:16:01.739Z,14.97
2018-07-03T00:18:30.295Z,14.95
2018-07-03T00:20:58.880Z,14.99
2018-07-03T00:23:27.409Z,15.02
2018-07-03T00:25:56.005Z,15.00
2018-07-03T00:28:24.569Z,14.94
2018-07-03T00:30:53.166Z,14.87
2018-07-03T00:33:21.719Z,14.82
2018-07-03T00:35:50.277Z,14.75
2018-07-03T00:38:18.851Z,14.71
2018-07-03T00:40:47.416Z,14.65
2018-07-03T00:43:15.997Z,14.60
2018-07-03T00:45:44.579Z,14.60
2018-07-03T00:48:13.150Z,14.59
2018-07-03T00:50:41.796Z,14.56
2018-07-03T00:53:10.390Z,14.60
2018-07-03T00:55:38.985Z,14.67
2018-07-03T00:58:07.599Z,14.64
2018-07-03T01:00:37.057Z,14.57
2018-07-03T01:03:05.857Z,14.55
2018-07-03T01:05:34.642Z,14.60
2018-07-03T01:08:03.297Z,14.66
2018-07-03T01:10:31.884Z,14.68
2018-07-03T01:13:00.455Z,14.70
2018-07-03T01:15:29.097Z,14.60
2018-07-03T01:17:57.644Z,14.57
2018-07-03T01:20:26.208Z,14.55
2018-07-03T01:22:54.757Z,14.50
2018-07-03T01:25:23.433Z,14.44
2018-07-03T01:27:51.998Z,14.36
2018-07-03T01:30:20.577Z,14.29
2018-07-03T01:32:49.148Z,14.21
2018-07-03T01:35:17.740Z,14.15
2018-07-03T01:37:46.325Z,14.12
2018-07-03T01:40:14.917Z,14.05
2018-07-03T01:42:43.496Z,13.97
2018-07-03T01:45:12.120Z,13.98
2018-07-03T01:47:40.851Z,13.96
2018-07-03T01:50:09.436Z,13.95
2018-07-03T01:52:38.024Z,13.89
2018-07-03T01:55:06.653Z,13.83
2018-07-03T01:57:35.256Z,13.78
2018-07-03T02:00:04.283Z,13.76
2018-07-03T02:02:32.846Z,13.79
2018-07-03T02:05:01.460Z,13.71
2018-07-03T02:07:30.052Z,13.70
2018-07-03T02:09:58.620Z,13.61
2018-07-03T02:12:27.209Z,13.57
2018-07-03T02:14:55.790Z,13.50
2018-07-03T02:17:24.348Z,13.59
2018-07-03T02:19:52.929Z,13.71
2018-07-03T02:22:21.495Z,13.82
2018-07-03T02:24:50.077Z,13.89
2018-07-03T02:27:19.192Z,13.94
2018-07-03T02:29:47.762Z,13.87
2018-07-03T02:32:16.334Z,13.90
2018-07-03T02:34:46.017Z,13.85
2018-07-03T02:37:14.562Z,13.86
2018-07-03T02:39:43.225Z,13.80
2018-07-03T02:42:11.863Z,13.85
2018-07-03T02:44:40.444Z,13.77
2018-07-03T02:47:09.046Z,13.66
2018-07-03T02:49:37.634Z,13.78
2018-07-03T02:52:06.238Z,13.78
2018-07-03T02:54:34.849Z,13.66
2018-07-03T02:57:03.436Z,13.60
2018-07-03T02:59:32.009Z,13.72
2018-07-03T03:02:00.586Z,13.68
2018-07-03T03:04:29.164Z,13.76
2018-07-03T03:06:57.736Z,13.75
2018-07-03T03:09:26.326Z,13.69
2018-07-03T03:11:54.897Z,13.63
2018-07-03T03:14:23.455Z,13.71
2018-07-03T03:16:52.037Z,13.65
2018-07-03T03:19:20.678Z,13.62
2018-07-03T03:21:50.190Z,13.72
2018-07-03T03:24:18.806Z,13.82
2018-07-03T03:26:47.827Z,13.73
2018-07-03T03:29:16.384Z,13.64
2018-07-03T03:31:44.934Z,13.66
2018-07-03T03:34:13.549Z,13.75
2018-07-03T03:36:42.137Z,13.84
2018-07-03T03:39:10.758Z,13.87
2018-07-03T03:41:39.337Z,13.92
2018-07-03T03:44:07.995Z,13.94
2018-07-03T03:46:36.644Z,14.00
2018-07-03T03:49:05.300Z,13.98
2018-07-03T03:51:33.913Z,14.07
2018-07-03T03:54:02.489Z,14.15
2018-07-03T03:56:31.064Z,14.15
2018-07-03T03:58:59.664Z,14.22
2018-07-03T04:01:28.229Z,14.33
2018-07-03T04:03:56.798Z,14.49
2018-07-03T04:06:25.373Z,14.50
2018-07-03T04:08:53.963Z,14.54
2018-07-03T04:11:22.589Z,14.59
2018-07-03T04:13:51.209Z,14.78
2018-07-03T04:16:19.805Z,14.87
2018-07-03T04:18:48.393Z,14.90
2018-07-03T04:21:17.733Z,15.06
2018-07-03T04:23:46.332Z,15.23
2018-07-03T04:26:14.925Z,15.26
2018-07-03T04:28:43.473Z,15.37
2018-07-03T04:31:12.067Z,15.39
2018-07-03T04:33:40.649Z,15.42
2018-07-03T04:36:09.236Z,15.48
2018-07-03T04:38:37.817Z,15.55
2018-07-03T04:41:06.477Z,15.65
2018-07-03T04:43:35.668Z,15.66
2018-07-03T04:46:04.255Z,15.76
2018-07-03T04:48:32.813Z,15.83
2018-07-03T04:51:01.392Z,16.01
2018-07-03T04:53:30.903Z,15.96
2018-07-03T04:55:59.515Z,16.02
2018-07-03T04:58:28.064Z,16.15
2018-07-03T05:00:57.593Z,16.25
2018-07-03T05:03:26.186Z,16.43
2018-07-03T05:05:54.800Z,16.58
2018-07-03T05:08:23.406Z,16.68
2018-07-03T05:10:52.000Z,16.77
2018-07-03T05:13:20.582Z,16.87
2018-07-03T05:15:49.145Z,16.94
2018-07-03T05:18:17.726Z,17.06
2018-07-03T05:20:46.309Z,17.15
2018-07-03T05:23:14.895Z,17.20
2018-07-03T05:25:43.489Z,17.15
2018-07-03T05:28:12.079Z,17.19
2018-07-03T05:30:40.668Z,17.29
2018-07-03T05:33:09.279Z,17.45
2018-07-03T05:35:42.970Z,17.56
2018-07-03T05:38:11.573Z,17.56
2018-07-03T05:40:40.158Z,17.56
2018-07-03T05:43:08.754Z,17.59
2018-07-03T05:45:37.474Z,17.70
2018-07-03T05:48:05.974Z,17.90
2018-07-03T05:50:34.688Z,17.84
2018-07-03T05:53:04.692Z,17.81
2018-07-03T05:55:33.241Z,17.98
2018-07-03T05:58:02.423Z,18.07
2018-07-03T06:00:31.219Z,18.18
2018-07-03T06:03:00.475Z,18.25
2018-07-03T06:05:29.116Z,18.37
2018-07-03T06:07:57.688Z,18.49
2018-07-03T06:10:26.285Z,18.74
2018-07-03T06:12:54.972Z,18.88
2018-07-03T06:15:23.538Z,18.91
2018-07-03T06:17:52.115Z,18.92
2018-07-03T06:20:20.707Z,18.81
2018-07-03T06:22:49.369Z,18.82
2018-07-03T06:25:18.081Z,18.95
2018-07-03T06:27:46.703Z,18.97
2018-07-03T06:30:15.443Z,19.02
2018-07-03T06:32:44.039Z,19.27
2018-07-03T06:35:12.966Z,19.49
2018-07-03T06:37:41.564Z,19.50
2018-07-03T06:40:10.209Z,19.48
2018-07-03T06:42:38.886Z,19.59
2018-07-03T06:45:07.923Z,19.68
2018-07-03T06:47:36.577Z,19.86
2018-07-03T06:50:06.607Z,19.86
2018-07-03T06:52:35.397Z,19.93
2018-07-03T06:55:04.327Z,20.10
2018-07-03T06:57:33.105Z,20.20
2018-07-03T07:00:01.571Z,20.24
2018-07-03T07:02:30.141Z,20.35
2018-07-03T07:04:58.762Z,20.47
2018-07-03T07:07:27.401Z,20.56
2018-07-03T07:09:56.093Z,20.47
2018-07-03T07:12:24.692Z,20.52
2018-07-03T07:14:53.350Z,20.54
2018-07-03T07:17:21.973Z,20.68
2018-07-03T07:19:50.641Z,20.83
2018-07-03T07:22:19.247Z,20.93
2018-07-03T07:24:47.852Z,20.95
2018-07-03T07:27:16.491Z,21.02
2018-07-03T07:29:45.114Z,21.18
2018-07-03T07:32:13.770Z,21.35
2018-07-03T07:34:42.409Z,21.40
2018-07-03T07:37:11.055Z,21.61
2018-07-03T07:39:39.669Z,21.53
2018-07-03T07:42:08.338Z,21.43
2018-07-03T07:44:36.913Z,21.43
2018-07-03T07:47:05.863Z,21.64
2018-07-03T07:49:34.570Z,21.88
2018-07-03T07:52:03.181Z,21.79
2018-07-03T07:54:31.789Z,21.88
2018-07-03T07:57:00.572Z,21.97
2018-07-03T07:59:29.190Z,22.23
2018-07-03T08:01:57.802Z,22.28
2018-07-03T08:04:26.440Z,22.45
2018-07-03T08:06:55.039Z,22.50
2018-07-03T08:09:23.680Z,22.53
2018-07-03T08:11:52.855Z,22.77
2018-07-03T08:14:21.501Z,22.67
2018-07-03T08:16:50.277Z,22.63
2018-07-03T08:19:18.955Z,22.59
2018-07-03T08:21:47.570Z,22.83
2018-07-03T08:24:16.230Z,22.95
2018-07-03T08:26:44.835Z,23.00
2018-07-03T08:29:13.528Z,22.99
2018-07-03T08:31:42.146Z,23.09
2018-07-03T08:34:10.796Z,23.11
2018-07-03T08:36:39.409Z,23.39
2018-07-03T08:39:10.316Z,23.42
2018-07-03T08:41:38.922Z,23.52
2018-07-03T08:44:08.066Z,23.62
2018-07-03T08:46:36.730Z,23.61
2018-07-03T08:49:06.920Z,23.74
2018-07-03T08:51:35.635Z,23.77
2018-07-03T08:54:04.343Z,23.97
2018-07-03T08:56:32.971Z,23.82
2018-07-03T08:59:01.616Z,24.05
2018-07-03T09:01:30.270Z,24.20
2018-07-03T09:03:58.904Z,24.28
2018-07-03T09:06:27.513Z,24.34
2018-07-03T09:08:56.154Z,24.40
2018-07-03T09:11:25.567Z,24.60
2018-07-03T09:13:54.225Z,24.51
2018-07-03T09:16:22.898Z,24.61
2018-07-03T09:18:51.551Z,24.56
2018-07-03T09:21:20.189Z,24.51
2018-07-03T09:23:48.792Z,24.75
2018-07-03T09:26:17.479Z,25.15
2018-07-03T09:28:46.103Z,25.18
2018-07-03T09:31:14.725Z,25.19
2018-07-03T09:33:43.354Z,25.41
2018-07-03T09:36:12.021Z,25.52
2018-07-03T09:38:40.698Z,25.30
2018-07-03T09:41:09.802Z,25.38
2018-07-03T09:43:38.421Z,25.55
2018-07-03T09:46:07.042Z,25.81
2018-07-03T10:01:26.758Z,26.52
2018-07-03T10:03:55.406Z,26.56
2018-07-03T10:06:24.029Z,26.40
2018-07-03T10:08:52.690Z,26.37
2018-07-03T10:11:21.325Z,26.42
2018-07-03T10:13:49.976Z,26.48
2018-07-03T10:16:18.638Z,26.60
2018-07-03T10:18:47.282Z,26.79
2018-07-03T10:21:15.902Z,27.01
2018-07-03T10:23:44.546Z,27.17
2018-07-03T10:26:13.194Z,27.33
2018-07-03T10:28:41.831Z,27.44
2018-07-03T10:31:10.870Z,27.70
2018-07-03T10:33:39.498Z,27.61
2018-07-03T10:36:08.366Z,27.75
2018-07-03T10:38:42.468Z,27.89
2018-07-03T10:41:11.450Z,28.11
2018-07-03T10:43:40.187Z,28.36
2018-07-03T10:46:09.363Z,28.45
2018-07-03T10:48:37.957Z,28.20
2018-07-03T10:51:06.607Z,28.22
2018-07-03T10:53:35.276Z,28.42
2018-07-03T10:56:03.930Z,27.93
2018-07-03T10:58:32.557Z,27.80
2018-07-03T11:01:01.253Z,28.20
2018-07-03T11:03:29.939Z,28.26
2018-07-03T11:05:58.628Z,27.89
2018-07-03T11:08:27.530Z,27.97
2018-07-03T11:10:56.356Z,28.06
2018-07-03T11:13:25.001Z,27.96
2018-07-03T11:15:53.658Z,28.15
2018-07-03T11:18:22.287Z,28.27
2018-07-03T11:20:50.944Z,27.80
2018-07-03T11:23:19.560Z,27.56
2018-07-03T11:25:48.243Z,27.53
2018-07-03T11:28:16.898Z,27.75
2018-07-03T11:30:45.540Z,28.00
2018-07-03T11:33:14.275Z,28.00
2018-07-03T11:35:43.027Z,28.16
2018-07-03T11:38:12.197Z,28.35
2018-07-03T11:40:40.879Z,28.72
2018-07-03T11:43:10.046Z,28.96
2018-07-03T11:45:38.724Z,29.21
2018-07-03T11:48:07.438Z,29.49
2018-07-03T11:50:36.103Z,29.58
2018-07-03T11:53:04.791Z,29.69
2018-07-03T11:55:33.429Z,29.69
2018-07-03T11:58:02.077Z,29.51
2018-07-03T12:00:30.789Z,29.56
2018-07-03T12:02:59.485Z,29.61
2018-07-03T12:05:28.108Z,29.51
2018-07-03T12:07:56.744Z,29.84
2018-07-03T12:10:25.431Z,29.87
2018-07-03T12:12:54.923Z,30.06
2018-07-03T12:15:23.549Z,30.23
2018-07-03T12:17:52.191Z,30.23
2018-07-03T12:20:20.857Z,30.01
2018-07-03T12:22:49.545Z,29.99
2018-07-03T12:25:18.161Z,30.40
2018-07-03T12:27:46.793Z,30.84
2018-07-03T12:30:15.483Z,30.97
2018-07-03T12:32:44.191Z,31.03
2018-07-03T12:35:13.391Z,31.21
2018-07-03T12:37:42.019Z,31.13
2018-07-03T12:40:10.780Z,31.35
2018-07-03T12:42:39.371Z,31.58
2018-07-03T12:45:08.039Z,31.49
2018-07-03T12:47:36.678Z,31.12
2018-07-03T12:50:05.483Z,31.30
2018-07-03T12:52:34.100Z,32.19
2018-07-03T12:55:02.741Z,32.67
2018-07-03T12:57:31.456Z,32.90
2018-07-03T13:00:00.051Z,33.24
2018-07-03T13:02:28.747Z,33.54
2018-07-03T13:04:57.364Z,33.79
2018-07-03T13:07:26.125Z,33.80
2018-07-03T13:09:54.763Z,33.98
2018-07-03T13:12:23.407Z,34.25
2018-07-03T13:14:52.158Z,34.72
2018-07-03T13:17:20.742Z,34.57
2018-07-03T13:19:49.352Z,34.90
2018-07-03T13:22:17.989Z,35.22
2018-07-03T13:24:46.618Z,35.26
2018-07-03T13:27:15.225Z,35.19
2018-07-03T13:29:43.908Z,35.30
2018-07-03T13:32:13.109Z,35.32
2018-07-03T13:34:41.723Z,35.65
2018-07-03T13:37:10.406Z,35.45
2018-07-03T13:39:38.978Z,35.08
2018-07-03T13:42:07.708Z,34.25
2018-07-03T13:44:36.252Z,33.95
2018-07-03T13:47:04.947Z,33.74
2018-07-03T13:49:33.588Z,33.38
2018-07-03T13:52:02.218Z,33.48
2018-07-03T13:54:30.839Z,32.58
2018-07-03T13:56:59.482Z,32.09
2018-07-03T13:59:28.112Z,32.27
2018-07-03T14:01:56.768Z,32.16
2018-07-03T14:04:25.449Z,32.91
2018-07-03T14:06:54.071Z,33.50
2018-07-03T14:09:24.206Z,33.72
2018-07-03T14:11:52.906Z,34.48
2018-07-03T14:14:21.537Z,34.83
2018-07-03T14:16:50.168Z,35.88
2018-07-03T14:19:18.809Z,36.75
2018-07-03T14:21:47.476Z,37.63
2018-07-03T14:24:16.313Z,38.25
2018-07-03T14:26:44.896Z,37.92
2018-07-03T14:29:13.744Z,38.50
2018-07-03T14:31:42.359Z,38.70
2018-07-03T14:34:11.011Z,38.76
2018-07-03T14:36:39.690Z,39.27
2018-07-03T14:39:11.593Z,39.85
2018-07-03T14:41:40.243Z,39.90
2018-07-03T14:44:08.836Z,39.45
2018-07-03T14:46:37.649Z,38.47
2018-07-03T14:49:06.337Z,39.28
2018-07-03T14:51:34.961Z,39.51
2018-07-03T14:54:03.543Z,39.38
2018-07-03T14:56:32.127Z,38.01
2018-07-03T14:59:00.776Z,35.47
2018-07-03T15:01:29.400Z,35.82
2018-07-03T15:03:58.038Z,37.13
2018-07-03T15:06:26.671Z,38.80
2018-07-03T15:08:55.260Z,40.04
2018-07-03T15:11:23.857Z,41.11
2018-07-03T15:13:52.487Z,41.79
2018-07-03T15:16:21.115Z,42.53
2018-07-03T15:21:28.690Z,41.82
2018-07-03T15:23:57.325Z,42.59
2018-07-03T15:26:25.996Z,43.66
2018-07-03T15:28:54.799Z,44.34
2018-07-03T15:31:23.454Z,44.59
2018-07-03T15:33:52.085Z,44.22
2018-07-03T15:36:20.831Z,44.61
2018-07-03T15:38:49.489Z,44.87
2018-07-03T15:41:18.106Z,46.06
2018-07-03T15:43:57.648Z,45.63
2018-07-03T15:46:26.360Z,44.73
2018-07-03T15:48:55.189Z,45.09
2018-07-03T15:51:23.802Z,45.37
2018-07-03T15:53:52.557Z,44.95
2018-07-03T15:56:21.327Z,44.63
2018-07-03T15:58:50.020Z,44.30
2018-07-03T16:01:18.632Z,44.59
2018-07-03T16:07:03.241Z,45.47
2018-07-03T16:09:32.018Z,45.77
2018-07-03T16:12:00.645Z,46.23
2018-07-03T16:14:29.325Z,46.15
2018-07-03T16:16:57.946Z,45.99
2018-07-03T16:19:31.724Z,43.98
2018-07-03T16:22:00.320Z,44.34
2018-07-03T16:24:29.157Z,43.65
2018-07-03T16:26:57.824Z,43.33
2018-07-03T16:29:26.477Z,41.86
2018-07-03T16:31:55.077Z,41.03
2018-07-03T16:34:23.726Z,41.33
2018-07-03T16:36:52.363Z,41.32
2018-07-03T16:39:21.014Z,41.53
2018-07-03T16:41:49.628Z,41.60
2018-07-03T16:44:18.772Z,41.60
2018-07-03T16:46:47.426Z,39.80
2018-07-03T16:49:16.255Z,40.14
2018-07-03T16:51:44.921Z,40.96
2018-07-03T16:54:13.602Z,41.66
2018-07-03T16:56:42.942Z,41.18
2018-07-03T16:59:11.552Z,41.15
2018-07-03T17:01:40.248Z,40.83
2018-07-03T17:04:08.895Z,41.10
2018-07-03T17:06:37.542Z,41.07
2018-07-03T17:09:09.103Z,41.26
2018-07-03T17:11:37.716Z,41.73
2018-07-03T17:14:07.742Z,41.40
2018-07-03T17:16:36.362Z,40.78
2018-07-03T17:19:10.212Z,41.31
2018-07-03T17:21:38.803Z,41.19
2018-07-03T17:24:07.468Z,41.96
2018-07-03T17:26:42.338Z,41.57
2018-07-03T17:29:11.019Z,40.63
2018-07-03T17:31:39.638Z,40.70
2018-07-03T17:34:08.670Z,40.62
2018-07-03T17:36:37.307Z,39.83
2018-07-03T17:39:12.173Z,39.24
2018-07-03T17:41:51.915Z,39.56
2018-07-03T17:45:36.155Z,38.96
2018-07-03T17:48:06.895Z,39.03
2018-07-03T17:50:35.983Z,38.58
2018-07-03T17:53:04.754Z,37.60
2018-07-03T17:55:33.796Z,36.81
2018-07-03T17:58:02.483Z,36.66
2018-07-03T18:00:31.447Z,36.56
2018-07-03T18:03:01.101Z,35.99
2018-07-03T18:05:30.541Z,34.84
2018-07-03T18:07:59.433Z,33.32
2018-07-03T18:10:28.114Z,31.80
2018-07-03T18:12:57.081Z,31.10
2018-07-03T18:15:25.777Z,30.33
2018-07-03T18:17:54.410Z,29.92
2018-07-03T18:20:23.093Z,29.21
2018-07-03T18:22:51.746Z,28.67
2018-07-03T18:25:20.471Z,28.26
2018-07-03T18:27:49.090Z,27.91
2018-07-03T18:30:17.744Z,27.61
2018-07-03T18:32:47.075Z,27.32
2018-07-03T18:35:15.666Z,27.06
2018-07-03T18:37:44.310Z,26.84
2018-07-03T18:40:13.046Z,26.61
2018-07-03T18:42:41.655Z,26.41
2018-07-03T18:45:10.343Z,26.19
2018-07-03T18:47:39.026Z,26.08
2018-07-03T18:50:07.738Z,25.96
2018-07-03T18:52:36.399Z,25.73
2018-07-03T18:55:05.102Z,25.54
2018-07-03T18:57:33.782Z,25.33
2018-07-03T19:00:02.458Z,25.19
2018-07-03T19:02:31.162Z,25.00
2018-07-03T19:04:59.847Z,24.77
2018-07-03T19:07:28.797Z,24.54
2018-07-03T19:09:57.553Z,24.31
2018-07-03T19:12:26.602Z,24.12
2018-07-03T19:14:55.590Z,23.92
2018-07-03T19:17:30.495Z,23.73
2018-07-03T19:19:59.145Z,23.61
2018-07-03T19:22:27.876Z,23.47
2018-07-03T19:24:56.513Z,23.33
2018-07-03T19:27:25.105Z,23.21
2018-07-03T19:32:22.169Z,22.88
2018-07-03T19:34:50.786Z,22.79
2018-07-03T19:37:19.374Z,22.81
2018-07-03T19:39:48.135Z,22.75
2018-07-03T19:42:16.575Z,22.64
2018-07-03T19:44:45.804Z,22.60
2018-07-03T19:47:14.425Z,22.51
2018-07-03T19:49:43.775Z,22.43
2018-07-03T19:52:12.494Z,22.41
2018-07-03T19:54:41.186Z,22.30
2018-07-03T19:57:09.795Z,22.23
2018-07-03T19:59:38.534Z,22.12
2018-07-03T20:02:07.706Z,21.96
2018-07-03T20:04:36.349Z,21.86
2018-07-03T20:07:05.285Z,21.84
2018-07-03T20:09:33.915Z,21.87
2018-07-03T20:12:02.613Z,21.89
2018-07-03T20:14:31.322Z,21.89
2018-07-03T20:17:00.377Z,21.85
2018-07-03T20:19:29.067Z,21.74
2018-07-03T20:21:57.783Z,21.74
2018-07-03T20:24:26.438Z,21.69
2018-07-03T20:26:55.081Z,21.59
2018-07-03T20:29:24.520Z,21.51
2018-07-03T20:31:53.149Z,21.49
2018-07-03T20:34:22.245Z,21.51
2018-07-03T20:36:50.921Z,21.43
2018-07-03T20:39:19.642Z,21.36
2018-07-03T20:41:48.326Z,21.37
2018-07-03T20:44:17.055Z,21.32
2018-07-03T20:46:45.697Z,21.20
2018-07-03T20:49:14.353Z,21.12
2018-07-03T20:51:43.011Z,21.08
2018-07-03T20:54:11.754Z,20.95
2018-07-03T20:56:40.408Z,20.85
2018-07-03T20:59:09.114Z,20.73
2018-07-03T21:01:37.744Z,20.61
2018-07-03T21:04:06.510Z,20.44
2018-07-03T21:06:35.142Z,20.31
2018-07-03T21:09:04.236Z,20.22
2018-07-03T21:11:32.974Z,20.17
2018-07-03T21:14:01.621Z,20.19
2018-07-03T21:16:30.281Z,20.16
2018-07-03T21:18:58.916Z,20.13
2018-07-03T21:21:27.535Z,20.14
2018-07-03T21:23:56.438Z,20.08
2018-07-03T21:26:25.895Z,20.09
2018-07-03T21:28:54.517Z,20.06
2018-07-03T21:31:23.413Z,19.99
2018-07-03T21:33:53.025Z,19.94
2018-07-03T21:36:21.678Z,19.89
2018-07-03T21:38:50.299Z,19.84
2018-07-03T21:41:19.098Z,19.84
2018-07-03T21:43:47.721Z,19.91
2018-07-03T21:46:16.373Z,19.97
2018-07-03T21:48:45.032Z,20.02
2018-07-03T21:51:13.630Z,19.97
2018-07-03T21:53:42.229Z,19.88
2018-07-03T21:56:10.843Z,19.79
2018-07-03T21:58:39.457Z,19.70
2018-07-03T22:01:08.080Z,19.61
2018-07-03T22:03:37.412Z,19.52
2018-07-03T22:06:06.083Z,19.52
2018-07-03T22:08:34.666Z,19.46
2018-07-03T22:11:03.301Z,19.37
2018-07-03T22:13:31.953Z,19.35
2018-07-03T22:16:00.575Z,19.31
2018-07-03T22:18:29.177Z,19.22
2018-07-03T22:20:57.774Z,19.12
2018-07-03T22:23:41.129Z,19.08
2018-07-03T22:26:32.927Z,19.22
2018-07-03T22:29:21.495Z,19.26
2018-07-03T22:32:05.203Z,19.28
2018-07-03T22:34:37.782Z,19.21
2018-07-03T22:37:21.065Z,19.24
2018-07-03T22:40:01.838Z,19.18
2018-07-03T22:42:34.674Z,19.11
2018-07-03T22:45:14.079Z,19.06
2018-07-03T22:47:59.194Z,19.05
2018-07-03T22:50:29.923Z,19.00
2018-07-03T22:53:18.337Z,18.95
2018-07-03T22:55:58.877Z,18.85
2018-07-03T22:58:33.808Z,18.79
2018-07-03T23:01:10.159Z,18.89
2018-07-03T23:03:41.194Z,18.81
2018-07-03T23:06:19.672Z,18.82
2018-07-03T23:09:10.586Z,18.80
2018-07-03T23:11:42.075Z,18.77
2018-07-03T23:14:15.304Z,18.76
2018-07-03T23:16:48.190Z,18.72
2018-07-03T23:19:36.337Z,18.71
2018-07-03T23:22:14.341Z,18.62
2018-07-03T23:24:46.765Z,18.57
2018-07-03T23:27:18.940Z,18.53
2018-07-03T23:29:56.177Z,18.52
2018-07-03T23:32:29.801Z,18.49
2018-07-03T23:35:07.146Z,18.36
2018-07-03T23:37:39.074Z,18.26
2018-07-03T23:40:13.706Z,18.16
2018-07-03T23:42:46.257Z,18.08
2018-07-03T23:45:22.725Z,18.04
2018-07-03T23:48:02.959Z,18.03
2018-07-03T23:50:42.753Z,17.97
2018-07-03T23:53:23.749Z,18.08
2018-07-03T23:56:03.702Z,18.02
2018-07-03T23:58:44.082Z,17.98
